Time;durP1;ratioP1;P1;durP2;ratioP2;P2;SDS_P1;SDS_P2;PMS_P1;PMS_P2;Temp;Humidity;BMP_temperature;BMP_pressure;BME280_temperature;BME280_humidity;BME280_pressure;Samples;Min_cycle;Max_cycle;Signal;HPM_P1;HPM_P2
2024/01/22 00:05:52;;;;;;;59.25;54.75;;;1.90;82.40;;;;;;12555486;28;20036;-76
2024/01/22 00:11:54;;;;;;;60.47;56.58;;;2.00;82.30;;;;;;12538383;28;20036;-76
2024/01/22 00:17:56;;;;;;;61.70;57.50;;;2.10;82.30;;;;;;12521657;28;20045;-76
2024/01/22 00:23:57;;;;;;;67.47;62.83;;;2.10;82.30;;;;;;12555563;28;20323;-76
2024/01/22 00:30:00;;;;;;;56.88;53.38;;;2.10;82.10;;;;;;12555214;28;20037;-76
2024/01/22 00:36:03;;;;;;;62.97;59.05;;;2.00;82.00;;;;;;12555085;28;20029;-75
2024/01/22 00:42:05;;;;;;;57.80;53.67;;;2.00;82.30;;;;;;12537042;28;20032;-75
2024/01/22 00:48:07;;;;;;;58.60;54.72;;;2.10;82.40;;;;;;12536801;28;20033;-75
2024/01/22 00:54:08;;;;;;;60.92;56.75;;;2.00;82.20;;;;;;12537830;28;20025;-75
2024/01/22 01:00:12;;;;;;;60.55;56.85;;;1.90;82.10;;;;;;12520013;28;20040;-75
2024/01/22 01:06:13;;;;;;;62.25;58.17;;;1.90;82.20;;;;;;12536343;28;20047;-75
2024/01/22 01:12:15;;;;;;;54.70;50.97;;;1.80;82.20;;;;;;12537669;28;20036;-75
2024/01/22 01:18:16;;;;;;;63.47;59.25;;;1.80;82.20;;;;;;12570337;28;20044;-75
2024/01/22 01:24:18;;;;;;;62.58;58.55;;;1.80;82.10;;;;;;12570831;28;20452;-75
2024/01/22 01:30:20;;;;;;;57.08;53.33;;;1.90;82.00;;;;;;12535749;28;20033;-76
2024/01/22 01:36:21;;;;;;;61.40;57.47;;;1.90;81.90;;;;;;12569945;28;20033;-76
2024/01/22 01:42:23;;;;;;;59.15;55.00;;;1.90;81.90;;;;;;12551925;28;20362;-76
2024/01/22 01:48:25;;;;;;;58.63;54.95;;;1.90;81.90;;;;;;12569750;28;20033;-76
2024/01/22 01:54:28;;;;;;;58.58;54.67;;;1.90;81.90;;;;;;12569590;28;20326;-76
2024/01/22 02:00:31;;;;;;;61.55;57.40;;;1.90;81.80;;;;;;12551809;28;20041;-75
2024/01/22 02:06:33;;;;;;;57.17;53.38;;;2.00;81.60;;;;;;12536801;28;20037;-75
2024/01/22 02:12:34;;;;;;;57.97;54.35;;;2.10;81.70;;;;;;12569148;28;20033;-75
2024/01/22 02:18:36;;;;;;;62.53;57.83;;;2.20;81.40;;;;;;12569022;28;20025;-75
2024/01/22 02:24:38;;;;;;;56.60;52.70;;;1.90;81.40;;;;;;12548634;28;20033;-75
2024/01/22 02:30:40;;;;;;;58.45;54.45;;;1.80;81.60;;;;;;12560807;28;20037;-75
2024/01/22 02:36:42;;;;;;;60.58;56.53;;;1.90;81.70;;;;;;12542709;28;20350;-75
2024/01/22 02:42:43;;;;;;;59.95;55.65;;;1.80;81.70;;;;;;12560387;28;20040;-76
2024/01/22 02:48:45;;;;;;;58.55;54.90;;;2.00;81.70;;;;;;12525779;28;20043;-76
2024/01/22 02:54:46;;;;;;;55.92;52.22;;;1.90;81.30;;;;;;12559498;28;20052;-76
2024/01/22 03:00:48;;;;;;;53.63;49.65;;;1.80;81.50;;;;;;12560066;28;20036;-76
2024/01/22 03:06:50;;;;;;;54.38;50.50;;;1.60;81.70;;;;;;12559258;28;20339;-76
2024/01/22 03:12:52;;;;;;;57.47;53.90;;;1.60;81.90;;;;;;12558926;28;20033;-76
2024/01/22 03:18:53;;;;;;;66.30;61.38;;;1.80;81.90;;;;;;12558671;28;20040;-76
2024/01/22 03:24:55;;;;;;;67.20;62.55;;;1.80;81.90;;;;;;12558397;28;20044;-76
2024/01/22 03:30:57;;;;;;;61.60;57.70;;;2.10;81.60;;;;;;12540909;28;20215;-76
2024/01/22 03:36:58;;;;;;;63.45;59.35;;;2.30;81.10;;;;;;12557625;28;20401;-76
2024/01/22 03:43:00;;;;;;;62.88;58.67;;;2.10;81.00;;;;;;12557475;28;20441;-76
2024/01/22 03:49:01;;;;;;;61.85;57.55;;;2.30;81.20;;;;;;12557163;28;20040;-74
2024/01/22 03:55:03;;;;;;;63.00;58.50;;;2.60;80.90;;;;;;12539160;28;20029;-75
2024/01/22 04:01:04;;;;;;;56.40;51.75;;;2.60;80.40;;;;;;12523024;28;20055;-74
2024/01/22 04:07:06;;;;;;;53.47;49.55;;;2.70;80.10;;;;;;12556335;28;20115;-74
2024/01/22 04:13:07;;;;;;;46.67;42.80;;;2.70;79.70;;;;;;12556011;28;20033;-74
2024/01/22 04:19:09;;;;;;;47.75;43.95;;;2.50;80.10;;;;;;12555797;28;20032;-74
2024/01/22 04:25:11;;;;;;;45.70;41.58;;;2.60;80.20;;;;;;12555563;28;20044;-76
2024/01/22 04:31:13;;;;;;;45.38;41.03;;;2.80;79.80;;;;;;12537445;28;20040;-76
2024/01/22 04:37:14;;;;;;;42.58;39.20;;;2.80;79.40;;;;;;12554995;28;20029;-76
2024/01/22 04:43:16;;;;;;;48.55;44.67;;;2.60;79.20;;;;;;12554826;28;20028;-76
2024/01/22 04:49:17;;;;;;;49.50;45.70;;;2.50;80.00;;;;;;12536770;28;20048;-74
2024/01/22 04:55:19;;;;;;;42.22;39.20;;;2.60;79.60;;;;;;12554431;28;20434;-74
2024/01/22 05:01:20;;;;;;;51.72;48.20;;;2.50;79.10;;;;;;12554287;28;20036;-74
2024/01/22 05:07:23;;;;;;;59.80;55.75;;;2.20;79.60;;;;;;12537531;28;20036;-74
2024/01/22 05:13:25;;;;;;;52.88;49.10;;;2.20;80.00;;;;;;12554809;28;20243;-74
2024/01/22 05:19:26;;;;;;;54.60;50.70;;;2.50;79.60;;;;;;12503720;28;20048;-74
2024/01/22 05:25:27;;;;;;;42.95;39.60;;;2.60;79.30;;;;;;12553657;28;20040;-74
2024/01/22 05:31:29;;;;;;;42.15;38.70;;;2.80;79.20;;;;;;12553999;28;20033;-74
2024/01/22 05:37:31;;;;;;;49.38;45.90;;;2.60;78.50;;;;;;12553323;28;20461;-74
2024/01/22 05:43:33;;;;;;;54.90;50.95;;;2.30;79.30;;;;;;12553208;28;20036;-74
2024/01/22 05:49:34;;;;;;;51.28;47.45;;;2.40;79.10;;;;;;12535349;28;20041;-74
2024/01/22 05:55:36;;;;;;;45.42;42.22;;;2.40;79.20;;;;;;12552931;28;20323;-73
2024/01/22 06:01:37;;;;;;;50.10;46.65;;;2.60;78.80;;;;;;12557597;28;20050;-74
2024/01/22 06:07:41;;;;;;;49.42;45.63;;;2.50;78.70;;;;;;12562078;28;20346;-74
2024/01/22 06:13:50;;;;;;;55.33;51.17;;;2.60;78.70;;;;;;12562244;28;20048;-73
2024/01/22 06:19:52;;;;;;;49.08;45.42;;;2.60;78.70;;;;;;12562178;28;20032;-74
2024/01/22 06:25:53;;;;;;;41.65;38.13;;;2.60;78.40;;;;;;12561229;28;20039;-74
2024/01/22 06:31:58;;;;;;;45.42;41.63;;;2.70;78.40;;;;;;12543061;28;20043;-74
2024/01/22 06:38:00;;;;;;;42.40;39.13;;;2.90;78.10;;;;;;12560677;28;20041;-75
2024/01/22 06:44:02;;;;;;;40.67;37.10;;;2.80;77.80;;;;;;12543333;28;20032;-76
2024/01/22 06:50:03;;;;;;;40.15;36.83;;;2.80;77.60;;;;;;12542226;28;20036;-76
2024/01/22 06:56:07;;;;;;;51.67;47.80;;;2.50;77.60;;;;;;12559696;28;20021;-76
2024/01/22 07:02:09;;;;;;;48.95;45.55;;;2.30;78.50;;;;;;12479684;22;20363;-76
2024/01/22 07:08:12;;;;;;;56.58;52.83;;;2.50;78.30;;;;;;12461923;28;20054;-76
2024/01/22 07:14:14;;;;;;;51.45;47.38;;;2.50;78.70;;;;;;12459364;28;20038;-76
2024/01/22 07:20:16;;;;;;;49.90;45.83;;;2.70;78.20;;;;;;12458790;28;20064;-76
2024/01/22 07:26:18;;;;;;;38.35;34.97;;;2.80;77.90;;;;;;12458614;28;20045;-76
2024/01/22 07:32:19;;;;;;;44.33;40.30;;;2.90;77.70;;;;;;12458262;28;20038;-76
2024/01/22 07:38:23;;;;;;;30.30;27.42;;;3.00;77.60;;;;;;12459218;28;20033;-76
2024/01/22 07:44:24;;;;;;;47.22;42.20;;;3.10;77.80;;;;;;12458852;28;20099;-76
2024/01/22 07:50:26;;;;;;;46.67;42.03;;;2.90;78.00;;;;;;12457957;28;20435;-76
2024/01/22 07:56:28;;;;;;;49.97;45.47;;;3.10;78.60;;;;;;12404766;28;20038;-76
2024/01/22 08:02:29;;;;;;;46.40;40.63;;;3.30;78.40;;;;;;12433847;28;20358;-76
2024/01/22 08:08:31;;;;;;;45.92;41.10;;;3.40;78.30;;;;;;12453237;28;20431;-76
2024/01/22 08:14:34;;;;;;;30.17;27.13;;;3.30;78.50;;;;;;12435182;28;20046;-77
2024/01/22 08:20:35;;;;;;;39.58;35.55;;;3.30;78.70;;;;;;12451305;28;20034;-76
2024/01/22 08:26:37;;;;;;;38.55;34.50;;;3.00;79.10;;;;;;12417309;28;20254;-76
2024/01/22 08:32:39;;;;;;;31.30;27.98;;;2.60;79.70;;;;;;12417556;28;20034;-76
2024/01/22 08:38:41;;;;;;;39.67;36.05;;;2.90;80.60;;;;;;12406536;28;20037;-76
2024/01/22 08:44:43;;;;;;;35.95;32.83;;;2.70;80.30;;;;;;12390627;28;20062;-76
2024/01/22 08:50:45;;;;;;;28.15;25.38;;;2.60;80.90;;;;;;12407425;28;20038;-76
2024/01/22 08:56:49;;;;;;;34.75;31.25;;;3.00;81.80;;;;;;12407259;28;20030;-75
2024/01/22 09:02:50;;;;;;;31.70;26.73;;;3.20;81.50;;;;;;12407004;28;20465;-75
2024/01/22 09:08:55;;;;;;;33.20;29.90;;;3.50;81.50;;;;;;12422049;28;20037;-75
2024/01/22 09:14:57;;;;;;;26.23;23.55;;;3.80;81.30;;;;;;12405445;28;20102;-75
2024/01/22 09:20:59;;;;;;;33.13;29.70;;;3.80;81.20;;;;;;12421777;28;20339;-75
2024/01/22 09:27:01;;;;;;;29.00;26.20;;;3.90;81.80;;;;;;12422534;28;20045;-75
2024/01/22 09:33:05;;;;;;;40.03;36.67;;;4.20;81.60;;;;;;12406552;28;20359;-75
2024/01/22 09:39:07;;;;;;;30.10;27.52;;;4.20;81.00;;;;;;12414733;28;20031;-75
2024/01/22 09:45:28;;;;;;;36.55;33.65;;;4.20;81.60;;;;;;12415819;28;20042;-74
2024/01/22 09:51:34;;;;;;;37.28;33.95;;;4.20;82.30;;;;;;12414187;28;20053;-74
2024/01/22 09:57:38;;;;;;;56.72;52.85;;;4.50;82.50;;;;;;12414146;28;20055;-74
2024/01/22 10:03:43;;;;;;;49.08;45.38;;;4.70;82.20;;;;;;12414983;28;20026;-74
2024/01/22 10:09:46;;;;;;;45.83;42.60;;;4.50;82.10;;;;;;12414469;28;20038;-75
2024/01/22 10:15:48;;;;;;;39.28;36.13;;;4.10;82.60;;;;;;12414422;28;20029;-75
2024/01/22 10:22:00;;;;;;;36.30;33.30;;;4.00;82.80;;;;;;12414909;28;20030;-75
2024/01/22 10:28:19;;;;;;;40.15;37.17;;;4.10;83.50;;;;;;12414095;28;20043;-75
2024/01/22 10:34:23;;;;;;;59.13;55.22;;;4.60;83.20;;;;;;12429450;28;20034;-75
2024/01/22 10:40:30;;;;;;;42.20;39.17;;;4.50;83.00;;;;;;12412415;28;20462;-75
2024/01/22 10:46:33;;;;;;;47.13;43.60;;;4.50;83.20;;;;;;12427576;28;20034;-75
2024/01/22 10:52:59;;;;;;;54.95;51.38;;;4.90;84.00;;;;;;12428806;28;20049;-75
2024/01/22 10:59:10;;;;;;;72.50;67.45;;;5.40;83.20;;;;;;12412636;28;20477;-76
2024/01/22 11:05:15;;;;;;;55.67;52.10;;;5.40;83.30;;;;;;12428292;28;20387;-76
2024/01/22 11:11:21;;;;;;;57.15;53.30;;;5.40;83.50;;;;;;12411034;28;20042;-76
2024/01/22 11:17:25;;;;;;;67.03;62.83;;;5.50;83.40;;;;;;12412057;28;20034;-76
2024/01/22 11:23:26;;;;;;;62.53;58.55;;;5.70;83.80;;;;;;12394024;28;20485;-76
2024/01/22 11:29:29;;;;;;;40.13;37.50;;;5.90;83.20;;;;;;12426398;28;20038;-76
2024/01/22 11:35:38;;;;;;;49.95;46.88;;;5.50;83.30;;;;;;12411555;28;20117;-76
2024/01/22 11:41:41;;;;;;;25.70;23.08;;;5.90;84.30;;;;;;12410604;28;20423;-76
2024/01/22 11:47:42;;;;;;;60.58;56.90;;;6.30;83.40;;;;;;12421186;28;20029;-75
2024/01/22 11:53:52;;;;;;;54.88;50.92;;;6.40;83.10;;;;;;12456918;28;20030;-76
2024/01/22 11:59:57;;;;;;;50.80;47.53;;;6.50;83.30;;;;;;12439823;28;20049;-75
2024/01/22 12:06:00;;;;;;;75.85;71.55;;;6.40;83.00;;;;;;12456408;28;20500;-75
2024/01/22 12:12:04;;;;;;;73.45;69.38;;;6.20;83.70;;;;;;12417328;28;20045;-74
2024/01/22 12:18:07;;;;;;;56.13;52.58;;;6.40;83.50;;;;;;12451013;28;20025;-74
2024/01/22 12:24:14;;;;;;;52.35;48.70;;;6.40;83.80;;;;;;12456216;28;20045;-74
2024/01/22 12:30:17;;;;;;;56.72;52.50;;;6.40;83.80;;;;;;12457090;28;20034;-74
2024/01/22 12:36:19;;;;;;;63.15;59.08;;;6.40;83.60;;;;;;12455642;28;20034;-74
2024/01/22 12:42:21;;;;;;;72.03;67.93;;;6.40;84.10;;;;;;12456503;28;20034;-74
2024/01/22 12:48:22;;;;;;;68.63;64.80;;;6.60;83.60;;;;;;12456313;28;20037;-74
2024/01/22 12:54:24;;;;;;;52.08;48.53;;;6.40;83.80;;;;;;12456802;28;20041;-75
2024/01/22 13:00:27;;;;;;;66.47;62.60;;;6.30;84.20;;;;;;12456193;28;20064;-75
2024/01/22 13:06:30;;;;;;;72.57;68.05;;;6.50;83.70;;;;;;12456052;28;20057;-74
2024/01/22 13:12:32;;;;;;;42.88;39.08;;;6.50;83.70;;;;;;12454373;28;20038;-75
2024/01/22 13:18:34;;;;;;;43.28;39.97;;;6.60;83.30;;;;;;12454629;28;20029;-74
2024/01/22 13:24:36;;;;;;;63.17;59.08;;;6.70;83.70;;;;;;12438506;28;20046;-74
2024/01/22 13:30:39;;;;;;;56.78;52.83;;;6.90;83.60;;;;;;12453844;28;20033;-73
2024/01/22 13:36:40;;;;;;;61.67;57.88;;;6.90;83.50;;;;;;12455669;28;20033;-73
2024/01/22 13:42:43;;;;;;;45.58;42.63;;;7.00;83.50;;;;;;12453612;28;20346;-73
2024/01/22 13:48:51;;;;;;;43.90;40.97;;;7.10;83.60;;;;;;12453736;28;20042;-74
2024/01/22 13:55:22;;;;;;;78.38;73.63;;;7.20;83.40;;;;;;12454509;28;20041;-74
2024/01/22 14:01:23;;;;;;;59.90;56.55;;;7.10;83.60;;;;;;12453447;28;20045;-74
2024/01/22 14:07:25;;;;;;;73.85;69.65;;;7.30;83.90;;;;;;12454307;28;20434;-74
2024/01/22 14:13:28;;;;;;;38.25;34.97;;;7.30;83.90;;;;;;12452696;28;20038;-74
2024/01/22 14:19:32;;;;;;;58.88;54.65;;;7.30;84.00;;;;;;12454012;28;20041;-73
2024/01/22 14:25:35;;;;;;;50.50;47.10;;;7.20;84.30;;;;;;12462147;28;20034;-74
2024/01/22 14:31:37;;;;;;;45.10;41.88;;;7.20;84.70;;;;;;12462429;28;20045;-74
2024/01/22 14:37:38;;;;;;;54.80;51.42;;;7.40;84.60;;;;;;12462277;28;20058;-73
2024/01/22 14:43:40;;;;;;;50.22;46.92;;;7.40;84.30;;;;;;12461800;28;20370;-74
2024/01/22 14:49:41;;;;;;;53.38;49.63;;;7.40;84.80;;;;;;12461019;28;20044;-74
2024/01/22 14:55:43;;;;;;;57.17;53.17;;;7.60;84.30;;;;;;12443585;28;20034;-74
2024/01/22 15:01:45;;;;;;;71.65;67.53;;;7.80;84.30;;;;;;12468551;23;20370;-74
2024/01/22 15:07:46;;;;;;;85.30;80.60;;;7.90;83.80;;;;;;12459253;28;20022;-74
2024/01/22 15:13:49;;;;;;;54.60;51.22;;;7.90;83.70;;;;;;12458286;28;20417;-74
2024/01/22 15:19:51;;;;;;;79.85;75.20;;;7.80;83.30;;;;;;12459570;28;20041;-74
2024/01/22 15:25:52;;;;;;;44.85;41.65;;;7.40;83.80;;;;;;12460018;28;20041;-74
2024/01/22 15:31:54;;;;;;;55.47;51.50;;;7.40;84.50;;;;;;12459285;28;20090;-74
2024/01/22 15:37:57;;;;;;;59.58;55.45;;;7.50;84.10;;;;;;12457919;28;20042;-74
2024/01/22 15:43:59;;;;;;;65.40;60.80;;;7.20;84.10;;;;;;12459113;28;20382;-74
2024/01/22 15:50:00;;;;;;;63.65;59.15;;;7.10;84.10;;;;;;12455023;28;20034;-74
2024/01/22 15:56:02;;;;;;;43.97;39.85;;;6.70;84.20;;;;;;12410736;28;20037;-74
2024/01/22 16:02:04;;;;;;;86.75;81.22;;;6.70;84.70;;;;;;12410164;28;20054;-74
2024/01/22 16:08:06;;;;;;;66.70;61.65;;;6.90;84.10;;;;;;12408231;28;20030;-74
2024/01/22 16:14:08;;;;;;;80.40;75.10;;;7.00;83.60;;;;;;12408447;28;20030;-73
2024/01/22 16:20:11;;;;;;;70.47;65.78;;;7.10;83.00;;;;;;12408724;28;20031;-74
2024/01/22 16:26:13;;;;;;;93.05;87.40;;;7.20;83.00;;;;;;12407434;28;20030;-75
2024/01/22 16:32:15;;;;;;;81.82;75.47;;;7.20;82.90;;;;;;12408216;28;20367;-74
2024/01/22 16:38:17;;;;;;;75.13;68.80;;;7.20;82.60;;;;;;12408149;28;20026;-74
2024/01/22 16:44:39;;;;;;;80.45;74.60;;;7.30;82.40;;;;;;12405896;28;20103;-74
2024/01/22 16:50:41;;;;;;;74.55;69.05;;;7.20;82.20;;;;;;12407770;28;20471;-74
2024/01/22 16:56:43;;;;;;;54.53;49.53;;;6.80;82.50;;;;;;12407103;28;20026;-75
2024/01/22 17:02:44;;;;;;;63.17;57.25;;;6.70;83.20;;;;;;12407737;28;20038;-75
2024/01/22 17:08:46;;;;;;;81.50;75.38;;;6.90;83.00;;;;;;12407526;28;20435;-75
2024/01/22 17:14:48;;;;;;;53.33;48.60;;;7.10;82.40;;;;;;12440180;28;20058;-74
2024/01/22 17:20:50;;;;;;;53.85;49.35;;;7.00;82.30;;;;;;12438280;28;20046;-74
2024/01/22 17:26:51;;;;;;;49.58;44.47;;;6.60;82.40;;;;;;12454916;28;20148;-75
2024/01/22 17:32:55;;;;;;;66.57;59.97;;;6.60;82.80;;;;;;12454319;28;20454;-75
2024/01/22 17:38:56;;;;;;;81.30;75.47;;;6.70;82.30;;;;;;12455517;28;20036;-75
2024/01/22 17:44:58;;;;;;;107.72;100.05;;;6.80;81.90;;;;;;12455506;28;20461;-75
2024/01/22 17:51:00;;;;;;;77.32;71.65;;;6.40;82.10;;;;;;12455174;28;20045;-75
2024/01/22 17:57:02;;;;;;;73.47;68.25;;;6.50;82.40;;;;;;12458871;28;20038;-74
2024/01/22 18:03:04;;;;;;;83.65;77.85;;;6.50;82.20;;;;;;12464233;28;20037;-75
2024/01/22 18:09:07;;;;;;;73.88;68.22;;;6.60;82.00;;;;;;12464140;28;20036;-75
2024/01/22 18:15:09;;;;;;;72.97;67.78;;;6.40;82.20;;;;;;12463817;28;20041;-75
2024/01/22 18:21:11;;;;;;;88.07;81.47;;;6.40;82.10;;;;;;12463576;28;20482;-75
2024/01/22 18:27:12;;;;;;;60.22;54.80;;;6.20;82.80;;;;;;12463120;28;20033;-74
2024/01/22 18:33:16;;;;;;;93.55;86.75;;;6.30;82.50;;;;;;12462261;28;20034;-74
2024/01/22 18:39:24;;;;;;;47.38;42.83;;;6.20;82.20;;;;;;12463129;28;20033;-74
2024/01/22 18:45:26;;;;;;;43.75;39.35;;;6.00;82.60;;;;;;12461690;28;20029;-75
2024/01/22 18:51:54;;;;;;;64.90;60.15;;;5.70;83.10;;;;;;12461477;28;20025;-73
2024/01/22 18:57:56;;;;;;;62.25;57.17;;;5.60;83.50;;;;;;12461708;28;20029;-73
2024/01/22 19:03:58;;;;;;;79.32;73.38;;;5.40;83.80;;;;;;12460902;28;20034;-75
2024/01/22 19:09:59;;;;;;;87.15;80.72;;;5.30;84.20;;;;;;12460128;28;20264;-75
2024/01/22 19:16:01;;;;;;;75.80;69.95;;;5.60;84.20;;;;;;12459204;28;20033;-73
2024/01/22 19:22:03;;;;;;;90.47;84.03;;;5.70;83.80;;;;;;12459978;28;20033;-75
2024/01/22 19:28:05;;;;;;;63.17;57.17;;;5.80;83.90;;;;;;12459793;28;20458;-75
2024/01/22 19:34:07;;;;;;;66.28;59.60;;;6.10;83.80;;;;;;12459379;28;20042;-75
2024/01/22 19:40:09;;;;;;;95.97;89.00;;;6.30;84.00;;;;;;12459997;28;20034;-75
2024/01/22 19:46:14;;;;;;;91.97;85.05;;;6.30;83.50;;;;;;12459025;28;20030;-75
2024/01/22 19:52:16;;;;;;;103.90;96.50;;;6.20;83.50;;;;;;12458710;28;20033;-75
2024/01/22 19:58:17;;;;;;;57.20;51.60;;;6.10;83.40;;;;;;12458493;28;20037;-75
2024/01/22 20:04:23;;;;;;;57.42;52.05;;;6.20;83.70;;;;;;12458153;28;20050;-76
2024/01/22 20:10:25;;;;;;;90.68;83.75;;;6.30;83.30;;;;;;12457784;28;20038;-75
2024/01/22 20:16:27;;;;;;;58.85;53.83;;;6.10;83.10;;;;;;12456975;28;20074;-73
2024/01/22 20:22:28;;;;;;;93.82;86.88;;;6.00;83.60;;;;;;12456949;28;20030;-76
2024/01/22 20:28:31;;;;;;;65.15;58.38;;;6.20;83.70;;;;;;12457623;28;20042;-76
2024/01/22 20:34:32;;;;;;;110.63;101.22;;;6.30;83.50;;;;;;12457933;28;20029;-76
2024/01/22 20:40:34;;;;;;;104.03;95.50;;;6.40;83.10;;;;;;12456021;28;20026;-76
2024/01/22 20:46:36;;;;;;;87.45;80.15;;;6.30;83.10;;;;;;12457087;28;20252;-73
2024/01/22 20:52:38;;;;;;;100.78;93.18;;;6.20;83.00;;;;;;12456821;28;20439;-74
2024/01/22 20:58:41;;;;;;;77.88;71.03;;;6.20;83.10;;;;;;12456985;28;20034;-73
2024/01/22 21:04:43;;;;;;;60.45;54.60;;;6.20;83.10;;;;;;12456192;28;20030;-73
2024/01/22 21:10:45;;;;;;;90.63;83.57;;;6.00;82.80;;;;;;12456126;28;20034;-74
2024/01/22 21:16:47;;;;;;;92.15;84.47;;;5.60;83.20;;;;;;12456569;28;20461;-74
2024/01/22 21:22:49;;;;;;;64.28;58.67;;;5.70;83.90;;;;;;12455250;28;20034;-76
2024/01/22 21:28:56;;;;;;;88.43;81.72;;;5.90;84.20;;;;;;12455875;28;20033;-76
2024/01/22 21:35:15;;;;;;;87.13;80.05;;;6.00;83.70;;;;;;12466416;28;20045;-73
2024/01/22 21:41:16;;;;;;;84.70;78.28;;;6.00;83.80;;;;;;12465838;28;20022;-73
2024/01/22 21:47:18;;;;;;;95.03;87.88;;;6.10;83.50;;;;;;12464799;28;20077;-74
2024/01/22 21:53:22;;;;;;;81.47;75.10;;;6.10;83.40;;;;;;12464343;28;20026;-74
2024/01/22 21:59:24;;;;;;;91.97;85.10;;;6.20;83.30;;;;;;12464101;28;20030;-75
2024/01/22 22:05:46;;;;;;;67.03;60.85;;;6.20;83.50;;;;;;12464215;28;20450;-76
2024/01/22 22:11:48;;;;;;;106.68;98.47;;;5.80;83.70;;;;;;12462841;28;20049;-74
2024/01/22 22:17:51;;;;;;;75.70;69.95;;;5.90;83.80;;;;;;12463466;28;20108;-73
2024/01/22 22:23:52;;;;;;;79.85;73.15;;;6.00;83.60;;;;;;12461930;28;20025;-72
2024/01/22 22:29:54;;;;;;;104.18;96.75;;;6.10;83.90;;;;;;12462772;28;20358;-72
2024/01/22 22:35:55;;;;;;;65.55;59.20;;;6.20;83.70;;;;;;12462458;28;20030;-74
2024/01/22 22:41:57;;;;;;;89.10;82.32;;;6.10;83.70;;;;;;12461126;28;20029;-73
2024/01/22 22:47:59;;;;;;;104.20;96.45;;;6.20;84.20;;;;;;12460741;28;20033;-73
2024/01/22 22:54:06;;;;;;;57.78;52.38;;;6.20;84.40;;;;;;12461597;28;20034;-74
2024/01/22 23:00:12;;;;;;;82.88;76.28;;;6.00;84.10;;;;;;12468028;23;20046;-73
2024/01/22 23:06:13;;;;;;;88.95;82.22;;;6.00;84.10;;;;;;12461703;28;20314;-73
2024/01/22 23:12:18;;;;;;;87.32;80.88;;;6.00;83.70;;;;;;12460253;28;20045;-73
2024/01/22 23:18:19;;;;;;;49.67;44.60;;;5.70;84.00;;;;;;12459283;28;20041;-73
2024/01/22 23:24:21;;;;;;;77.05;70.53;;;5.70;84.10;;;;;;12461232;28;20437;-74
2024/01/22 23:30:24;;;;;;;75.15;68.47;;;5.80;83.80;;;;;;12459366;28;20034;-74
2024/01/22 23:36:28;;;;;;;88.18;79.78;;;5.70;83.50;;;;;;12458954;28;20038;-74
2024/01/22 23:42:30;;;;;;;90.78;82.82;;;5.50;83.70;;;;;;12458810;28;20030;-74
2024/01/22 23:48:46;;;;;;;84.95;77.68;;;5.60;83.50;;;;;;12460114;28;20439;-74
2024/01/22 23:54:51;;;;;;;92.82;84.55;;;5.40;83.30;;;;;;12457620;28;20438;-74
